Time,TemperatureF,DewpointF,PressureIn,WindDirection,WindDirectionDegrees,WindSpeedMPH,WindSpeedGustMPH,Humidity,HourlyPrecipIn,Conditions,Clouds,dailyrainin,SolarRadiationWatts/m^2,SoftwareType,DateUTC
2013-03-14 00:02:00,40.7,38.6,29.62,WSW,256,6.0,7.0,92,0.00,,,0.00,0,Wunderground v.1.15,2013-03-13 23:02:00,
2013-03-14 00:08:00,40.8,38.7,29.62,WSW,256,5.0,7.0,92,0.00,,,0.00,0,Wunderground v.1.15,2013-03-13 23:08:00,
2013-03-14 00:16:00,41.0,38.9,29.62,WNW,286,5.0,5.0,92,0.00,,,0.00,0,Wunderground v.1.15,2013-03-13 23:16:00,
2013-03-14 00:22:00,41.4,39.3,29.62,WNW,287,6.0,8.0,92,0.00,,,0.00,0,Wunderground v.1.15,2013-03-13 23:22:00,
2013-03-14 00:28:00,41.7,39.5,29.62,WNW,291,6.0,8.0,92,0.00,,,0.00,0,Wunderground v.1.15,2013-03-13 23:28:00,
2013-03-14 00:36:00,42.0,39.8,29.63,WNW,298,5.0,8.0,92,0.00,,,0.00,0,Wunderground v.1.15,2013-03-13 23:36:00,
2013-03-14 00:42:00,42.4,40.0,29.63,NNW,331,5.0,10.0,91,0.00,,,0.00,0,Wunderground v.1.15,2013-03-13 23:42:00,
2013-03-14 00:48:00,42.7,40.3,29.63,WNW,294,6.0,10.0,91,0.00,,,0.00,0,Wunderground v.1.15,2013-03-13 23:48:00,
2013-03-14 00:56:00,42.9,40.2,29.63,NW,306,5.0,7.0,90,0.00,,,0.00,0,Wunderground v.1.15,2013-03-13 23:56:00,
2013-03-14 01:02:00,42.9,39.9,29.63,NW,318,5.0,9.0,89,0.00,,,0.00,0,Wunderground v.1.15,2013-03-14 00:02:00,
2013-03-14 01:08:00,43.2,39.9,29.63,NNW,340,6.0,11.0,88,0.00,,,0.00,0,Wunderground v.1.15,2013-03-14 00:08:00,
2013-03-14 01:16:00,43.7,40.1,29.63,NW,306,6.0,8.0,87,0.00,,,0.00,0,Wunderground v.1.15,2013-03-14 00:16:00,
2013-03-14 01:22:00,43.9,40.0,29.63,NW,325,6.0,6.0,86,0.00,,,0.00,0,Wunderground v.1.15,2013-03-14 00:22:00,
2013-03-14 01:28:00,44.0,40.1,29.63,NNE,32,5.0,10.0,86,0.00,,,0.00,0,Wunderground v.1.15,2013-03-14 00:28:00,
2013-03-14 01:36:00,44.1,39.6,29.64,NW,323,5.0,6.0,84,0.00,,,0.00,0,Wunderground v.1.15,2013-03-14 00:36:00,
2013-03-14 01:42:00,44.2,39.4,29.64,NNE,21,5.0,8.0,83,0.00,,,0.00,0,Wunderground v.1.15,2013-03-14 00:42:00,
2013-03-14 01:48:00,44.2,39.1,29.64,NNE,19,5.0,9.0,82,0.00,,,0.00,0,Wunderground v.1.15,2013-03-14 00:48:00,
2013-03-14 01:56:00,44.2,39.1,29.64,NNE,31,7.0,11.0,82,0.00,,,0.00,0,Wunderground v.1.15,2013-03-14 00:56:00,
2013-03-14 02:02:00,44.4,38.9,29.64,NNW,331,8.0,8.0,81,0.00,,,0.00,0,Wunderground v.1.15,2013-03-14 01:02:00,
2013-03-14 02:08:00,44.4,38.6,29.64,North,355,7.0,13.0,80,0.00,,,0.00,0,Wunderground v.1.15,2013-03-14 01:08:00,
2013-03-14 02:16:00,44.5,38.7,29.65,North,350,8.0,9.0,80,0.00,,,0.00,0,Wunderground v.1.15,2013-03-14 01:16:00,
2013-03-14 02:22:00,44.6,38.8,29.65,North,350,9.0,14.0,80,0.00,,,0.00,0,Wunderground v.1.15,2013-03-14 01:22:00,
2013-03-14 02:28:00,44.8,38.7,29.66,NNW,334,10.0,14.0,79,0.00,,,0.00,0,Wunderground v.1.15,2013-03-14 01:28:00,
2013-03-14 02:36:00,44.8,38.0,29.65,North,355,10.0,16.0,77,0.00,,,0.00,0,Wunderground v.1.15,2013-03-14 01:36:00,
2013-03-14 02:42:00,44.9,38.1,29.66,NNE,23,11.0,12.0,77,0.00,,,0.00,0,Wunderground v.1.15,2013-03-14 01:42:00,
2013-03-14 02:48:00,44.9,38.1,29.66,NNW,340,10.0,15.0,77,0.00,,,0.00,0,Wunderground v.1.15,2013-03-14 01:48:00,
2013-03-14 02:56:00,44.9,38.1,29.66,North,355,9.0,10.0,77,0.00,,,0.00,0,Wunderground v.1.15,2013-03-14 01:56:00,
2013-03-14 03:02:00,44.9,38.1,29.66,NNE,13,7.0,8.0,77,0.00,,,0.00,0,Wunderground v.1.15,2013-03-14 02:02:00,
2013-03-14 03:08:00,44.8,38.0,29.66,NNW,338,7.0,12.0,77,0.00,,,0.00,0,Wunderground v.1.15,2013-03-14 02:08:00,
2013-03-14 03:16:00,45.1,38.0,29.66,NNW,333,9.0,11.0,76,0.00,,,0.00,0,Wunderground v.1.15,2013-03-14 02:16:00,
2013-03-14 03:22:00,45.2,38.1,29.66,NNW,339,9.0,9.0,76,0.00,,,0.00,0,Wunderground v.1.15,2013-03-14 02:22:00,
2013-03-14 03:28:00,45.2,38.1,29.66,NNW,340,8.0,9.0,76,0.00,,,0.00,0,Wunderground v.1.15,2013-03-14 02:28:00,
2013-03-14 03:36:00,45.2,38.1,29.66,NNW,336,7.0,8.0,76,0.00,,,0.00,0,Wunderground v.1.15,2013-03-14 02:36:00,
2013-03-14 03:42:00,45.1,38.0,29.66,NNW,335,5.0,6.0,76,0.00,,,0.00,0,Wunderground v.1.15,2013-03-14 02:42:00,
2013-03-14 03:48:00,45.2,38.4,29.66,NNW,340,6.0,7.0,77,0.00,,,0.00,0,Wunderground v.1.15,2013-03-14 02:48:00,
2013-03-14 03:56:00,45.4,38.3,29.66,NNW,340,6.0,9.0,76,0.00,,,0.00,0,Wunderground v.1.15,2013-03-14 02:56:00,
2013-03-14 04:02:00,45.3,38.5,29.66,NNW,341,5.0,5.0,77,0.00,,,0.00,0,Wunderground v.1.15,2013-03-14 03:02:00,
2013-03-14 04:08:00,45.0,38.2,29.67,North,350,3.0,5.0,77,0.00,,,0.00,0,Wunderground v.1.15,2013-03-14 03:08:00,
2013-03-14 04:16:00,44.8,38.4,29.67,North,350,2.0,3.0,78,0.00,,,0.00,0,Wunderground v.1.15,2013-03-14 03:16:00,
2013-03-14 04:22:00,44.7,38.6,29.67,North,350,1.0,2.0,79,0.00,,,0.00,0,Wunderground v.1.15,2013-03-14 03:22:00,
2013-03-14 04:28:00,44.6,38.8,29.67,North,349,2.0,3.0,80,0.00,,,0.00,0,Wunderground v.1.15,2013-03-14 03:28:00,
2013-03-14 04:36:00,44.6,38.8,29.67,North,350,1.0,3.0,80,0.00,,,0.00,0,Wunderground v.1.15,2013-03-14 03:36:00,
2013-03-14 04:42:00,44.6,38.8,29.67,North,350,1.0,3.0,80,0.00,,,0.00,0,Wunderground v.1.15,2013-03-14 03:42:00,
2013-03-14 04:48:00,44.6,38.8,29.67,North,349,2.0,3.0,80,0.00,,,0.00,0,Wunderground v.1.15,2013-03-14 03:48:00,
2013-03-14 04:56:00,44.6,39.1,29.68,North,350,1.0,3.0,81,0.00,,,0.01,0,Wunderground v.1.15,2013-03-14 03:56:00,
2013-03-14 05:00:00,44.5,39.0,29.68,North,360,2.0,2.0,81,0.00,,,0.01,0,Wunderground v.1.15,2013-03-14 04:00:00,
2013-03-14 05:02:00,44.4,39.2,29.68,North,360,2.0,2.0,82,0.00,,,0.01,0,Wunderground v.1.15,2013-03-14 04:02:00,
2013-03-14 05:08:00,43.9,38.8,29.67,North,360,2.0,3.0,82,0.04,,,0.02,0,Wunderground v.1.15,2013-03-14 04:08:00,
2013-03-14 05:16:00,43.5,38.7,29.67,North,360,0.0,2.0,83,0.04,,,0.02,0,Wunderground v.1.15,2013-03-14 04:16:00,
2013-03-14 05:22:00,43.4,38.6,29.67,North,360,1.0,5.0,83,0.04,,,0.02,0,Wunderground v.1.15,2013-03-14 04:22:00,
2013-03-14 05:28:00,43.3,38.5,29.67,North,360,2.0,5.0,83,0.00,,,0.02,0,Wunderground v.1.15,2013-03-14 04:28:00,
2013-03-14 05:36:00,43.2,38.4,29.67,North,360,1.0,3.0,83,0.00,,,0.02,0,Wunderground v.1.15,2013-03-14 04:36:00,
2013-03-14 05:42:00,43.1,38.3,29.66,WNW,295,2.0,5.0,83,0.00,,,0.02,0,Wunderground v.1.15,2013-03-14 04:42:00,
2013-03-14 05:48:00,42.8,38.0,29.67,WNW,295,4.0,5.0,83,0.00,,,0.02,0,Wunderground v.1.15,2013-03-14 04:48:00,
2013-03-14 05:56:00,42.5,37.7,29.67,WNW,295,1.0,3.0,83,0.00,,,0.02,0,Wunderground v.1.15,2013-03-14 04:56:00,
2013-03-14 06:02:00,42.8,37.7,29.67,West,265,2.0,5.0,82,0.00,,,0.02,0,Wunderground v.1.15,2013-03-14 05:02:00,
2013-03-14 06:08:00,42.1,37.3,29.68,West,260,5.0,6.0,83,0.00,,,0.02,0,Wunderground v.1.15,2013-03-14 05:08:00,
2013-03-14 06:16:00,41.3,36.8,29.68,West,260,4.0,5.0,84,0.00,,,0.02,0,Wunderground v.1.15,2013-03-14 05:16:00,
2013-03-14 06:22:00,41.3,37.1,29.68,West,260,3.0,7.0,85,0.00,,,0.02,0,Wunderground v.1.15,2013-03-14 05:22:00,
2013-03-14 06:28:00,41.4,37.5,29.68,West,260,4.0,7.0,86,0.00,,,0.02,0,Wunderground v.1.15,2013-03-14 05:28:00,
2013-03-14 06:36:00,41.6,37.7,29.68,West,260,6.0,6.0,86,0.00,,,0.02,0,Wunderground v.1.15,2013-03-14 05:36:00,
2013-03-14 06:42:00,41.5,37.3,29.68,West,260,3.0,4.0,85,0.00,,,0.02,0,Wunderground v.1.15,2013-03-14 05:42:00,
2013-03-14 06:48:00,41.3,37.4,29.68,West,260,2.0,4.0,86,0.00,,,0.02,0,Wunderground v.1.15,2013-03-14 05:48:00,
2013-03-14 06:56:00,41.4,37.5,29.68,West,260,2.0,3.0,86,0.00,,,0.02,0,Wunderground v.1.15,2013-03-14 05:56:00,
2013-03-14 07:02:00,41.6,37.7,29.69,West,260,3.0,3.0,86,0.00,,,0.02,0,Wunderground v.1.15,2013-03-14 06:02:00,
2013-03-14 07:08:00,41.8,37.9,29.69,West,260,3.0,3.0,86,0.00,,,0.02,0,Wunderground v.1.15,2013-03-14 06:08:00,
2013-03-14 07:16:00,41.9,38.0,29.69,West,259,2.0,5.0,86,0.00,,,0.02,14,Wunderground v.1.15,2013-03-14 06:16:00,
2013-03-14 07:22:00,42.0,37.8,29.69,West,259,2.0,2.0,85,0.00,,,0.02,26,Wunderground v.1.15,2013-03-14 06:22:00,
2013-03-14 07:28:00,42.6,38.1,29.69,North,10,2.0,8.0,84,0.00,,,0.02,37,Wunderground v.1.15,2013-03-14 06:28:00,
2013-03-14 07:36:00,43.6,38.2,29.70,NNW,346,3.0,5.0,81,0.00,,,0.02,23,Wunderground v.1.15,2013-03-14 06:36:00,
2013-03-14 07:42:00,43.7,37.9,29.70,NE,43,4.0,7.0,80,0.00,,,0.02,35,Wunderground v.1.15,2013-03-14 06:42:00,
2013-03-14 07:48:00,43.8,37.4,29.71,NNW,336,4.0,8.0,78,0.00,,,0.02,51,Wunderground v.1.15,2013-03-14 06:48:00,
2013-03-14 07:56:00,44.4,37.0,29.71,NE,46,6.0,7.0,75,0.00,,,0.02,58,Wunderground v.1.15,2013-03-14 06:56:00,
2013-03-14 08:02:00,44.5,36.7,29.72,ENE,76,5.0,5.0,74,0.00,,,0.02,70,Wunderground v.1.15,2013-03-14 07:02:00,
2013-03-14 08:08:00,44.9,36.8,29.72,North,350,3.0,6.0,73,0.00,,,0.02,174,Wunderground v.1.15,2013-03-14 07:08:00,
2013-03-14 08:16:00,45.7,36.8,29.72,NW,308,4.0,9.0,71,0.00,,,0.02,195,Wunderground v.1.15,2013-03-14 07:16:00,
2013-03-14 08:22:00,46.1,37.2,29.72,WNW,299,5.0,5.0,71,0.00,,,0.02,220,Wunderground v.1.15,2013-03-14 07:22:00,
2013-03-14 08:28:00,46.5,36.9,29.72,NW,320,4.0,8.0,69,0.00,,,0.02,230,Wunderground v.1.15,2013-03-14 07:28:00,
2013-03-14 08:36:00,46.9,36.9,29.72,NNW,329,5.0,5.0,68,0.00,,,0.02,271,Wunderground v.1.15,2013-03-14 07:36:00,
2013-03-14 08:42:00,47.1,35.9,29.72,NNW,329,5.0,5.0,65,0.00,,,0.02,294,Wunderground v.1.15,2013-03-14 07:42:00,
2013-03-14 08:48:00,47.1,35.1,29.73,West,281,5.0,7.0,63,0.00,,,0.02,345,Wunderground v.1.15,2013-03-14 07:48:00,
2013-03-14 08:56:00,47.2,34.8,29.73,WNW,296,5.0,6.0,62,0.00,,,0.02,429,Wunderground v.1.15,2013-03-14 07:56:00,
2013-03-14 09:02:00,47.5,35.5,29.74,NW,306,3.0,4.0,63,0.00,,,0.02,134,Wunderground v.1.15,2013-03-14 08:02:00,
2013-03-14 09:08:00,47.2,34.4,29.74,West,280,3.0,6.0,61,0.00,,,0.02,156,Wunderground v.1.15,2013-03-14 08:08:00,
2013-03-14 09:16:00,46.7,33.5,29.74,West,267,6.0,8.0,60,0.00,,,0.02,100,Wunderground v.1.15,2013-03-14 08:16:00,
2013-03-14 09:22:00,46.5,32.9,29.74,WNW,284,7.0,7.0,59,0.00,,,0.02,148,Wunderground v.1.15,2013-03-14 08:22:00,
2013-03-14 09:28:00,46.9,33.7,29.74,West,277,5.0,8.0,60,0.00,,,0.02,429,Wunderground v.1.15,2013-03-14 08:28:00,
2013-03-14 09:36:00,46.9,33.3,29.75,West,260,4.0,7.0,59,0.00,,,0.02,120,Wunderground v.1.15,2013-03-14 08:36:00,
2013-03-14 09:42:00,46.9,34.1,29.74,NW,322,4.0,4.0,61,0.00,,,0.02,128,Wunderground v.1.15,2013-03-14 08:42:00,
2013-03-14 09:48:00,47.0,33.8,29.74,NW,321,4.0,5.0,60,0.00,,,0.02,139,Wunderground v.1.15,2013-03-14 08:48:00,
2013-03-14 09:56:00,47.1,34.7,29.75,NE,44,4.0,5.0,62,0.00,,,0.02,120,Wunderground v.1.15,2013-03-14 08:56:00,
2013-03-14 10:02:00,47.0,34.2,29.75,NW,309,5.0,5.0,61,0.00,,,0.02,151,Wunderground v.1.15,2013-03-14 09:02:00,
2013-03-14 10:08:00,47.3,34.9,29.75,WNW,290,6.0,10.0,62,0.00,,,0.02,181,Wunderground v.1.15,2013-03-14 09:08:00,
2013-03-14 10:16:00,48.1,35.7,29.75,North,360,6.0,10.0,62,0.00,,,0.02,251,Wunderground v.1.15,2013-03-14 09:16:00,
2013-03-14 10:22:00,48.5,35.2,29.75,NNW,329,4.0,5.0,60,0.00,,,0.02,239,Wunderground v.1.15,2013-03-14 09:22:00,
2013-03-14 10:28:00,49.0,35.3,29.75,North,349,5.0,11.0,59,0.00,,,0.02,768,Wunderground v.1.15,2013-03-14 09:28:00,
2013-03-14 10:36:00,49.3,35.1,29.76,NNW,337,6.0,9.0,58,0.00,,,0.02,613,Wunderground v.1.15,2013-03-14 09:36:00,
2013-03-14 10:42:00,50.0,36.7,29.75,NNE,15,5.0,7.0,60,0.00,,,0.02,854,Wunderground v.1.15,2013-03-14 09:42:00,
2013-03-14 10:48:00,50.5,35.4,29.76,NW,304,5.0,7.0,56,0.00,,,0.02,283,Wunderground v.1.15,2013-03-14 09:48:00,
2013-03-14 10:58:00,50.0,35.4,29.76,WNW,286,7.0,8.0,57,0.00,,,0.02,272,Wunderground v.1.15,2013-03-14 09:58:00,
2013-03-14 11:08:00,48.3,33.8,29.76,NNW,333,7.0,11.0,57,0.00,,,0.02,236,Wunderground v.1.15,2013-03-14 10:08:00,
2013-03-14 11:18:00,49.1,36.2,29.77,NW,324,4.0,7.0,61,0.00,,,0.02,267,Wunderground v.1.15,2013-03-14 10:18:00,
2013-03-14 11:28:00,48.4,33.9,29.76,WNW,287,7.0,9.0,57,0.00,,,0.02,269,Wunderground v.1.15,2013-03-14 10:28:00,
2013-03-14 11:38:00,49.0,35.7,29.77,North,355,5.0,7.0,60,0.00,,,0.02,346,Wunderground v.1.15,2013-03-14 10:38:00,
2013-03-14 11:48:00,50.8,35.2,29.76,NE,34,6.0,7.0,55,0.00,,,0.02,951,Wunderground v.1.15,2013-03-14 10:48:00,
2013-03-14 11:58:00,49.6,33.2,29.76,NW,322,5.0,7.0,53,0.00,,,0.02,229,Wunderground v.1.15,2013-03-14 10:58:00,
2013-03-14 12:08:00,50.3,34.3,29.77,NW,318,5.0,6.0,54,0.00,,,0.02,496,Wunderground v.1.15,2013-03-14 11:08:00,
2013-03-14 12:18:00,49.6,34.1,29.77,NE,35,4.0,6.0,55,0.00,,,0.02,271,Wunderground v.1.15,2013-03-14 11:18:00,
2013-03-14 12:28:00,49.9,32.5,29.76,West,260,5.0,8.0,51,0.00,,,0.02,218,Wunderground v.1.15,2013-03-14 11:28:00,
2013-03-14 12:36:00,50.4,34.8,29.77,NNW,346,6.0,10.0,55,0.00,,,0.02,895,Wunderground v.1.15,2013-03-14 11:36:00,
2013-03-14 12:42:00,52.0,35.9,29.77,North,355,5.0,5.0,54,0.00,,,0.02,928,Wunderground v.1.15,2013-03-14 11:42:00,
2013-03-14 12:48:00,52.9,35.7,29.76,NE,52,6.0,16.0,52,0.00,,,0.02,1027,Wunderground v.1.15,2013-03-14 11:48:00,
2013-03-14 12:56:00,51.7,33.6,29.76,NNW,331,9.0,14.0,50,0.00,,,0.02,295,Wunderground v.1.15,2013-03-14 11:56:00,
2013-03-14 13:02:00,50.8,35.7,29.77,North,5,9.0,10.0,56,0.00,,,0.02,264,Wunderground v.1.15,2013-03-14 12:02:00,
2013-03-14 13:08:00,50.4,35.3,29.77,NNE,19,7.0,10.0,56,0.00,,,0.02,174,Wunderground v.1.15,2013-03-14 12:08:00,
2013-03-14 13:16:00,49.9,35.3,29.77,NE,53,7.0,12.0,57,0.00,,,0.02,325,Wunderground v.1.15,2013-03-14 12:16:00,
2013-03-14 13:22:00,50.4,38.3,29.77,East,83,6.0,9.0,63,0.00,,,0.02,258,Wunderground v.1.15,2013-03-14 12:22:00,
2013-03-14 13:28:00,50.3,37.8,29.76,NE,34,6.0,11.0,62,0.00,,,0.02,232,Wunderground v.1.15,2013-03-14 12:28:00,
2013-03-14 13:36:00,50.3,39.0,29.77,ENE,73,5.0,8.0,65,0.00,,,0.02,870,Wunderground v.1.15,2013-03-14 12:36:00,
2013-03-14 13:42:00,51.5,37.2,29.76,NNW,348,4.0,5.0,58,0.00,,,0.02,842,Wunderground v.1.15,2013-03-14 12:42:00,
2013-03-14 13:48:00,51.6,33.6,29.76,NW,304,5.0,10.0,50,0.00,,,0.02,835,Wunderground v.1.15,2013-03-14 12:48:00,
2013-03-14 13:56:00,51.8,34.2,29.76,NW,311,8.0,9.0,51,0.00,,,0.02,840,Wunderground v.1.15,2013-03-14 12:56:00,
2013-03-14 14:02:00,52.2,35.1,29.76,NW,323,7.0,9.0,52,0.00,,,0.02,923,Wunderground v.1.15,2013-03-14 13:02:00,
2013-03-14 14:08:00,52.3,33.7,29.76,NW,306,6.0,9.0,49,0.00,,,0.02,1005,Wunderground v.1.15,2013-03-14 13:08:00,
2013-03-14 14:18:00,52.5,34.4,29.77,NNW,333,7.0,19.0,50,0.00,,,0.02,246,Wunderground v.1.15,2013-03-14 13:18:00,
2013-03-14 14:28:00,51.3,32.3,29.76,North,360,9.0,14.0,48,0.00,,,0.02,791,Wunderground v.1.15,2013-03-14 13:28:00,
2013-03-14 14:38:00,51.6,32.5,29.76,NE,44,6.0,7.0,48,0.00,,,0.02,220,Wunderground v.1.15,2013-03-14 13:38:00,
2013-03-14 14:48:00,51.1,33.1,29.75,WSW,253,9.0,9.0,50,0.00,,,0.02,223,Wunderground v.1.15,2013-03-14 13:48:00,
2013-03-14 14:58:00,49.5,31.6,29.75,NNW,330,9.0,9.0,50,0.00,,,0.02,91,Wunderground v.1.15,2013-03-14 13:58:00,
2013-03-14 15:08:00,49.4,32.5,29.75,NW,310,5.0,8.0,52,0.00,,,0.02,114,Wunderground v.1.15,2013-03-14 14:08:00,
2013-03-14 15:18:00,49.5,32.1,29.75,NW,323,9.0,9.0,51,0.00,,,0.02,265,Wunderground v.1.15,2013-03-14 14:18:00,
2013-03-14 15:28:00,50.4,32.9,29.75,NW,323,6.0,14.0,51,0.00,,,0.02,803,Wunderground v.1.15,2013-03-14 14:28:00,
2013-03-14 15:38:00,52.0,33.9,29.75,NW,321,8.0,8.0,50,0.00,,,0.02,751,Wunderground v.1.15,2013-03-14 14:38:00,
2013-03-14 15:48:00,52.0,33.4,29.75,NNW,335,10.0,12.0,49,0.00,,,0.02,645,Wunderground v.1.15,2013-03-14 14:48:00,
2013-03-14 15:58:00,51.9,33.3,29.75,WSW,252,8.0,10.0,49,0.00,,,0.02,223,Wunderground v.1.15,2013-03-14 14:58:00,
2013-03-14 16:08:00,51.5,33.5,29.74,WNW,296,7.0,11.0,50,0.00,,,0.02,575,Wunderground v.1.15,2013-03-14 15:08:00,
2013-03-14 16:18:00,51.6,34.0,29.74,West,280,9.0,11.0,51,0.00,,,0.02,520,Wunderground v.1.15,2013-03-14 15:18:00,
2013-03-14 16:28:00,51.8,35.2,29.74,WNW,295,10.0,29.0,53,0.00,,,0.02,548,Wunderground v.1.15,2013-03-14 15:28:00,
2013-03-14 16:36:00,52.3,36.1,29.74,North,355,9.0,11.0,54,0.00,,,0.02,446,Wunderground v.1.15,2013-03-14 15:36:00,
2013-03-14 16:42:00,52.3,35.2,29.74,NNW,338,10.0,13.0,52,0.00,,,0.02,415,Wunderground v.1.15,2013-03-14 15:42:00,
2013-03-14 16:48:00,51.9,34.8,29.74,North,350,13.0,13.0,52,0.00,,,0.02,427,Wunderground v.1.15,2013-03-14 15:48:00,
2013-03-14 16:58:00,52.8,35.6,29.74,North,351,7.0,13.0,52,0.00,,,0.02,432,Wunderground v.1.15,2013-03-14 15:58:00,
2013-03-14 17:08:00,52.4,35.3,29.73,NNW,330,13.0,19.0,52,0.00,,,0.02,322,Wunderground v.1.15,2013-03-14 16:08:00,
2013-03-14 17:18:00,52.0,35.4,29.73,WNW,292,12.0,17.0,53,0.00,,,0.02,98,Wunderground v.1.15,2013-03-14 16:18:00,
2013-03-14 17:28:00,51.8,35.2,29.73,NW,319,15.0,23.0,53,0.00,,,0.02,255,Wunderground v.1.15,2013-03-14 16:28:00,
2013-03-14 17:38:00,51.2,35.1,29.73,WNW,296,15.0,17.0,54,0.00,,,0.02,67,Wunderground v.1.15,2013-03-14 16:38:00,
2013-03-14 17:48:00,51.0,34.9,29.73,NW,307,11.0,18.0,54,0.00,,,0.02,26,Wunderground v.1.15,2013-03-14 16:48:00,
2013-03-14 17:58:00,50.6,35.5,29.74,North,5,11.0,11.0,56,0.00,,,0.02,32,Wunderground v.1.15,2013-03-14 16:58:00,
2013-03-14 18:08:00,50.4,35.7,29.74,NNW,331,11.0,20.0,57,0.00,,,0.02,11,Wunderground v.1.15,2013-03-14 17:08:00,
2013-03-14 18:16:00,49.8,35.2,29.75,North,349,11.0,11.0,57,0.00,,,0.02,0,Wunderground v.1.15,2013-03-14 17:16:00,
2013-03-14 18:22:00,49.5,36.2,29.75,NNW,329,9.0,11.0,60,0.00,,,0.02,12,Wunderground v.1.15,2013-03-14 17:22:00,
2013-03-14 18:28:00,49.3,36.0,29.74,North,360,8.0,11.0,60,0.00,,,0.02,11,Wunderground v.1.15,2013-03-14 17:28:00,
2013-03-14 18:40:00,50.1,34.1,29.74,WNW,297,15.0,23.0,54,0.00,,,0.02,0,Wunderground v.1.15,2013-03-14 17:40:00,
2013-03-14 18:48:00,49.9,34.4,29.75,NW,319,17.0,24.0,55,0.00,,,0.03,0,Wunderground v.1.15,2013-03-14 17:48:00,
2013-03-14 18:58:00,50.5,34.9,29.75,NW,315,11.0,14.0,55,0.00,,,0.03,0,Wunderground v.1.15,2013-03-14 17:58:00,
2013-03-14 19:08:00,50.9,34.8,29.74,NW,315,15.0,15.0,54,0.00,,,0.03,0,Wunderground v.1.15,2013-03-14 18:08:00,
2013-03-14 19:18:00,50.7,35.6,29.75,NNW,333,14.0,19.0,56,0.00,,,0.03,0,Wunderground v.1.15,2013-03-14 18:18:00,
2013-03-14 19:30:00,50.6,35.0,29.76,West,276,14.0,14.0,55,0.00,,,0.03,0,Wunderground v.1.15,2013-03-14 18:30:00,
2013-03-14 19:38:00,50.5,34.0,29.78,North,360,14.0,15.0,53,0.00,,,0.03,0,Wunderground v.1.15,2013-03-14 18:38:00,
2013-03-14 19:46:00,50.1,33.6,29.77,WNW,285,13.0,16.0,53,0.00,,,0.03,0,Wunderground v.1.15,2013-03-14 18:46:00,
2013-03-14 19:52:00,50.1,33.6,29.76,NW,321,13.0,14.0,53,0.00,,,0.03,0,Wunderground v.1.15,2013-03-14 18:52:00,
2013-03-14 20:12:00,50.5,35.4,29.77,NW,326,10.0,12.0,56,0.00,,,0.03,0,Wunderground v.1.15,2013-03-14 19:12:00,
2013-03-14 20:18:00,50.6,35.5,29.77,North,355,11.0,15.0,56,0.00,,,0.03,0,Wunderground v.1.15,2013-03-14 19:18:00,
2013-03-14 20:28:00,50.1,36.7,29.77,NW,315,9.0,11.0,60,0.00,,,0.03,0,Wunderground v.1.15,2013-03-14 19:28:00,
2013-03-14 20:36:00,49.4,35.2,29.79,WNW,303,12.0,18.0,58,0.00,,,0.03,0,Wunderground v.1.15,2013-03-14 19:36:00,
2013-03-14 20:42:00,48.6,36.6,29.79,NW,315,18.0,18.0,63,0.00,,,0.04,0,Wunderground v.1.15,2013-03-14 19:42:00,
2013-03-14 20:48:00,47.5,36.3,29.82,NNW,331,18.0,21.0,65,0.07,,,0.05,0,Wunderground v.1.15,2013-03-14 19:48:00,
2013-03-14 20:56:00,45.9,36.7,29.81,NE,46,17.0,17.0,70,0.16,,,0.06,0,Wunderground v.1.15,2013-03-14 19:56:00,
2013-03-14 21:02:00,45.4,36.9,29.82,NE,44,16.0,16.0,72,0.08,,,0.06,0,Wunderground v.1.15,2013-03-14 20:02:00,
2013-03-14 21:08:00,44.8,36.7,29.81,East,82,14.0,16.0,73,0.08,,,0.07,0,Wunderground v.1.15,2013-03-14 20:08:00,
2013-03-14 21:16:00,44.0,36.9,29.82,ENE,69,10.0,12.0,76,0.06,,,0.08,0,Wunderground v.1.15,2013-03-14 20:16:00,
2013-03-14 21:22:00,43.7,37.0,29.81,NE,53,8.0,9.0,77,0.10,,,0.09,0,Wunderground v.1.15,2013-03-14 20:22:00,
2013-03-14 21:28:00,43.6,37.2,29.82,NNE,21,8.0,10.0,78,0.07,,,0.09,0,Wunderground v.1.15,2013-03-14 20:28:00,
2013-03-14 21:38:00,44.3,37.9,29.81,NNW,344,11.0,14.0,78,0.13,,,0.11,0,Wunderground v.1.15,2013-03-14 20:38:00,
2013-03-14 21:48:00,45.0,38.2,29.82,North,360,10.0,15.0,77,0.23,,,0.12,0,Wunderground v.1.15,2013-03-14 20:48:00,
2013-03-14 21:58:00,44.6,37.8,29.81,NE,40,11.0,15.0,77,0.08,,,0.13,0,Wunderground v.1.15,2013-03-14 20:58:00,
2013-03-14 22:06:00,44.2,38.1,29.81,ENE,71,8.0,11.0,79,0.06,,,0.13,0,Wunderground v.1.15,2013-03-14 21:06:00,
2013-03-14 22:12:00,44.3,38.2,29.81,NE,51,8.0,8.0,79,0.04,,,0.13,0,Wunderground v.1.15,2013-03-14 21:12:00,
2013-03-14 22:18:00,45.5,38.7,29.81,North,360,11.0,13.0,77,0.00,,,0.13,0,Wunderground v.1.15,2013-03-14 21:18:00,
2013-03-14 22:30:00,47.7,39.1,29.81,North,349,15.0,18.0,72,0.00,,,0.14,0,Wunderground v.1.15,2013-03-14 21:30:00,
2013-03-14 22:40:00,47.0,38.8,29.80,East,86,10.0,11.0,73,0.00,,,0.14,0,Wunderground v.1.15,2013-03-14 21:40:00,
2013-03-14 22:48:00,45.6,38.1,29.80,NE,36,11.0,11.0,75,0.00,,,0.14,0,Wunderground v.1.15,2013-03-14 21:48:00,
2013-03-14 22:58:00,45.4,37.9,29.80,NE,55,11.0,14.0,75,0.00,,,0.14,0,Wunderground v.1.15,2013-03-14 21:58:00,
2013-03-14 23:08:00,45.6,38.1,29.81,East,82,11.0,16.0,75,0.00,,,0.14,0,Wunderground v.1.15,2013-03-14 22:08:00,
2013-03-14 23:18:00,47.2,39.0,29.81,NNE,29,12.0,17.0,73,0.00,,,0.14,0,Wunderground v.1.15,2013-03-14 22:18:00,
2013-03-14 23:28:00,48.0,39.0,29.82,NNW,340,11.0,13.0,71,0.00,,,0.14,0,Wunderground v.1.15,2013-03-14 22:28:00,
2013-03-14 23:40:00,48.0,38.3,29.82,NE,45,12.0,20.0,69,0.00,,,0.14,0,Wunderground v.1.15,2013-03-14 22:40:00,
2013-03-14 23:46:00,48.1,37.7,29.82,NE,41,12.0,20.0,67,0.00,,,0.14,0,Wunderground v.1.15,2013-03-14 22:46:00,
2013-03-14 23:52:00,48.1,37.3,29.83,NNW,331,10.0,16.0,66,0.00,,,0.14,0,Wunderground v.1.15,2013-03-14 22:52:00,
2013-03-14 23:58:00,48.3,37.1,29.83,NE,44,10.0,16.0,65,0.00,,,0.14,0,Wunderground v.1.15,2013-03-14 22:58:00,